Time;durP1;ratioP1;P1;durP2;ratioP2;P2;SDS_P1;SDS_P2;PMS_P1;PMS_P2;Temp;Humidity;BMP_temperature;BMP_pressure;BME280_temperature;BME280_humidity;BME280_pressure;Samples;Min_cycle;Max_cycle;Signal;HPM_P1;HPM_P2
2024/01/24 00:02:01;;;;;;;21.50;16.88;;;3.70;1.00;;;;;;5106178;28;20032;-77
2024/01/24 00:04:27;;;;;;;21.83;16.30;;;3.70;1.00;;;;;;5103406;28;20023;-77
2024/01/24 00:06:53;;;;;;;22.42;16.15;;;3.70;1.00;;;;;;5093925;28;20028;-76
2024/01/24 00:09:19;;;;;;;22.55;16.98;;;3.70;99.90;;;;;;5113035;28;20030;-76
2024/01/24 00:11:45;;;;;;;22.42;15.90;;;3.70;99.90;;;;;;5113376;28;20483;-77
2024/01/24 00:14:10;;;;;;;23.10;16.88;;;3.80;99.90;;;;;;5101398;28;20069;-76
2024/01/24 00:16:36;;;;;;;21.45;16.20;;;3.80;99.90;;;;;;5109106;28;20024;-76
2024/01/24 00:19:02;;;;;;;25.17;17.23;;;3.80;99.90;;;;;;5105259;28;20386;-77
2024/01/24 00:21:28;;;;;;;20.20;15.75;;;3.70;99.90;;;;;;5108711;28;20094;-76
2024/01/24 00:23:54;;;;;;;24.08;16.63;;;3.70;99.90;;;;;;5100951;28;20074;-77
2024/01/24 00:26:19;;;;;;;19.80;14.75;;;3.70;99.90;;;;;;5100588;28;20102;-77
2024/01/24 00:28:45;;;;;;;22.65;15.27;;;3.70;99.90;;;;;;5084202;28;20487;-77
2024/01/24 00:31:11;;;;;;;23.52;15.57;;;3.80;99.90;;;;;;5102966;28;20076;-77
2024/01/24 00:33:36;;;;;;;19.05;15.27;;;3.80;99.90;;;;;;5102585;28;20027;-77
2024/01/24 00:36:02;;;;;;;23.00;15.43;;;3.80;99.90;;;;;;5104211;28;20027;-76
2024/01/24 00:38:28;;;;;;;20.98;15.25;;;3.70;99.90;;;;;;5106102;28;20604;-76
2024/01/24 00:40:54;;;;;;;20.13;14.73;;;3.70;99.90;;;;;;5099230;28;20039;-77
2024/01/24 00:43:20;;;;;;;18.88;14.55;;;3.70;99.90;;;;;;5117227;27;20059;-76
2024/01/24 00:45:45;;;;;;;20.30;14.63;;;3.70;99.90;;;;;;5119835;27;20027;-77
2024/01/24 00:48:11;;;;;;;21.15;14.48;;;3.70;99.90;;;;;;5124411;27;20020;-77
2024/01/24 00:50:37;;;;;;;20.30;14.75;;;3.70;99.90;;;;;;5100705;28;20487;-77
2024/01/24 00:53:06;;;;;;;16.63;13.52;;;3.70;99.90;;;;;;5119586;27;20047;-77
2024/01/24 00:55:32;;;;;;;18.08;13.45;;;3.70;99.90;;;;;;5105478;28;20102;-77
2024/01/24 00:57:58;;;;;;;17.33;13.60;;;3.70;99.90;;;;;;5112704;28;20022;-76
2024/01/24 01:00:24;;;;;;;15.43;13.15;;;3.70;99.90;;;;;;5098617;28;20074;-76
2024/01/24 01:02:50;;;;;;;17.13;13.13;;;3.70;99.90;;;;;;5106607;28;20076;-77
2024/01/24 01:05:16;;;;;;;17.60;12.02;;;3.70;99.90;;;;;;5090358;28;20028;-76
2024/01/24 01:07:42;;;;;;;14.27;11.65;;;3.80;99.90;;;;;;5097511;28;20433;-76
2024/01/24 01:10:08;;;;;;;15.15;11.90;;;3.70;99.90;;;;;;5107587;28;20039;-76
2024/01/24 01:12:34;;;;;;;15.45;12.25;;;3.70;99.90;;;;;;5099800;28;20455;-77
2024/01/24 01:15:00;;;;;;;18.27;13.30;;;3.70;99.90;;;;;;5085543;28;20034;-76
2024/01/24 01:17:25;;;;;;;15.77;12.77;;;3.70;99.90;;;;;;5112167;28;20054;-76
2024/01/24 01:19:51;;;;;;;18.85;12.45;;;3.70;99.90;;;;;;5099759;28;20076;-77
2024/01/24 01:22:18;;;;;;;17.67;12.00;;;3.70;99.90;;;;;;5103885;28;20040;-77
2024/01/24 01:24:43;;;;;;;15.68;12.20;;;3.70;99.90;;;;;;5104568;28;20042;-77
2024/01/24 01:27:09;;;;;;;13.63;11.23;;;3.70;99.90;;;;;;5105547;28;20480;-76
2024/01/24 01:29:35;;;;;;;13.35;10.82;;;3.70;99.90;;;;;;5104053;28;20028;-77
2024/01/24 01:32:01;;;;;;;13.95;11.57;;;3.80;99.90;;;;;;5101475;28;20024;-77
2024/01/24 01:34:26;;;;;;;12.75;10.45;;;3.80;99.90;;;;;;5099903;28;20208;-76
2024/01/24 01:36:52;;;;;;;12.02;10.13;;;3.80;99.90;;;;;;5102226;28;20145;-77
2024/01/24 01:39:18;;;;;;;12.75;10.77;;;3.80;99.90;;;;;;5104856;28;20048;-76
2024/01/24 01:41:48;;;;;;;13.05;10.70;;;3.80;99.90;;;;;;5102759;28;20016;-77
2024/01/24 01:44:15;;;;;;;16.10;10.52;;;3.80;99.90;;;;;;5119993;28;20119;-76
2024/01/24 01:46:41;;;;;;;11.60;10.13;;;3.80;99.90;;;;;;5095613;28;20107;-76
2024/01/24 01:49:07;;;;;;;12.60;10.98;;;3.80;99.90;;;;;;5106953;28;20035;-78
2024/01/24 01:51:34;;;;;;;12.65;9.80;;;3.80;99.90;;;;;;5086650;28;20019;-77
2024/01/24 01:54:00;;;;;;;13.52;9.65;;;3.80;99.90;;;;;;5103936;28;20077;-76
2024/01/24 01:56:27;;;;;;;12.00;9.90;;;3.90;99.90;;;;;;5101608;28;20076;-76
2024/01/24 01:58:52;;;;;;;11.40;9.57;;;3.90;99.90;;;;;;5117294;28;20028;-77
2024/01/24 02:01:19;;;;;;;12.93;10.73;;;3.90;99.90;;;;;;5103488;28;20028;-77
2024/01/24 02:03:45;;;;;;;15.48;10.57;;;3.90;99.90;;;;;;5096637;28;20028;-77
2024/01/24 02:06:11;;;;;;;12.05;10.20;;;3.80;99.90;;;;;;5099004;28;20051;-76
2024/01/24 02:08:39;;;;;;;12.18;10.38;;;3.80;99.90;;;;;;5099304;28;20478;-77
2024/01/24 02:11:06;;;;;;;11.77;10.10;;;3.80;99.90;;;;;;5111468;28;20072;-77
2024/01/24 02:13:32;;;;;;;13.15;9.57;;;3.80;99.90;;;;;;5099984;28;20040;-76
2024/01/24 02:16:04;;;;;;;10.32;9.23;;;3.80;99.90;;;;;;5102443;28;20016;-77
2024/01/24 02:18:30;;;;;;;11.27;9.00;;;3.80;99.90;;;;;;5117099;28;20020;-77
2024/01/24 02:20:56;;;;;;;13.05;10.48;;;3.80;99.90;;;;;;5089651;28;20418;-76
2024/01/24 02:23:26;;;;;;;10.05;8.77;;;3.80;99.90;;;;;;5102194;28;20487;-77
2024/01/24 02:25:53;;;;;;;11.75;9.45;;;3.80;99.90;;;;;;5104311;28;20085;-77
2024/01/24 02:28:19;;;;;;;12.40;9.50;;;3.80;99.90;;;;;;5106958;28;20031;-76
2024/01/24 02:30:45;;;;;;;12.00;9.95;;;3.70;99.90;;;;;;5110817;28;20387;-76
2024/01/24 02:33:12;;;;;;;11.45;10.02;;;3.70;99.90;;;;;;5106802;28;20080;-77
2024/01/24 02:35:37;;;;;;;11.45;9.13;;;3.70;99.90;;;;;;5106953;28;20020;-76
2024/01/24 02:38:03;;;;;;;11.55;8.95;;;3.70;99.90;;;;;;5105054;28;20023;-76
2024/01/24 02:40:29;;;;;;;13.52;9.27;;;3.70;99.90;;;;;;5127552;27;20046;-77
2024/01/24 02:42:55;;;;;;;11.32;9.13;;;3.70;99.90;;;;;;5095099;28;20024;-76
2024/01/24 02:45:21;;;;;;;11.00;8.88;;;3.70;99.90;;;;;;5108075;28;20076;-76
2024/01/24 02:47:47;;;;;;;9.98;8.98;;;3.70;99.90;;;;;;5102454;28;20395;-76
2024/01/24 02:50:13;;;;;;;10.35;8.73;;;3.70;99.90;;;;;;5105367;28;20046;-76
2024/01/24 02:52:39;;;;;;;11.25;9.10;;;3.70;99.90;;;;;;5102738;28;20028;-77
2024/01/24 02:55:06;;;;;;;11.90;9.13;;;3.60;99.90;;;;;;5102222;28;20384;-76
2024/01/24 02:57:32;;;;;;;10.10;8.05;;;3.60;99.90;;;;;;5105483;28;20019;-76
2024/01/24 02:59:58;;;;;;;9.98;8.98;;;3.60;99.90;;;;;;5106366;28;20083;-76
2024/01/24 03:02:24;;;;;;;9.85;8.27;;;3.60;99.90;;;;;;5095786;28;20497;-76
2024/01/24 03:04:50;;;;;;;9.68;8.68;;;3.60;99.90;;;;;;5110284;28;20383;-77
2024/01/24 03:07:15;;;;;;;9.82;8.52;;;3.60;99.90;;;;;;5110319;28;20030;-77
2024/01/24 03:09:41;;;;;;;11.93;9.15;;;3.60;99.90;;;;;;5092537;28;20035;-76
2024/01/24 03:12:07;;;;;;;10.05;8.23;;;3.60;99.90;;;;;;5095885;28;20050;-77
2024/01/24 03:14:33;;;;;;;10.15;7.90;;;3.60;99.90;;;;;;5093499;28;20024;-76
2024/01/24 03:16:58;;;;;;;10.27;8.13;;;3.60;99.90;;;;;;5116379;27;20032;-76
2024/01/24 03:19:24;;;;;;;9.63;7.88;;;3.60;99.90;;;;;;5103040;28;20033;-77
2024/01/24 03:21:50;;;;;;;10.77;7.60;;;3.70;99.90;;;;;;5109875;28;20051;-77
2024/01/24 03:24:17;;;;;;;8.65;7.78;;;3.70;99.90;;;;;;5109423;28;20063;-76
2024/01/24 03:26:43;;;;;;;9.65;8.60;;;3.60;99.90;;;;;;5092282;28;20016;-76
2024/01/24 03:29:08;;;;;;;9.63;7.88;;;3.60;99.90;;;;;;5101914;28;20044;-77
2024/01/24 03:31:34;;;;;;;8.75;7.85;;;3.60;99.90;;;;;;5106744;28;20032;-76
2024/01/24 03:34:00;;;;;;;10.20;8.85;;;3.60;99.90;;;;;;5101976;28;20115;-76
2024/01/24 03:36:26;;;;;;;9.25;8.15;;;3.60;99.90;;;;;;5104604;28;20171;-76
2024/01/24 03:38:51;;;;;;;8.55;7.57;;;3.60;99.90;;;;;;5104957;28;20048;-76
2024/01/24 03:41:17;;;;;;;9.73;7.85;;;3.60;99.90;;;;;;5109779;28;20032;-77
2024/01/24 03:43:43;;;;;;;10.20;7.97;;;3.60;99.90;;;;;;5094127;28;20028;-76
2024/01/24 03:46:08;;;;;;;8.77;7.82;;;3.70;99.90;;;;;;5093003;28;20038;-76
2024/01/24 03:48:34;;;;;;;10.18;8.07;;;3.70;99.90;;;;;;5103325;28;20031;-77
2024/01/24 03:51:00;;;;;;;11.55;8.35;;;3.70;99.90;;;;;;5092245;28;20024;-76
2024/01/24 03:53:26;;;;;;;10.52;8.18;;;3.60;99.90;;;;;;5104328;28;20030;-77
2024/01/24 03:55:52;;;;;;;10.38;8.15;;;3.60;99.90;;;;;;5105331;28;20106;-77
2024/01/24 03:58:18;;;;;;;9.55;8.00;;;3.60;99.90;;;;;;5109522;28;20019;-77
2024/01/24 04:00:44;;;;;;;9.77;7.85;;;3.60;99.90;;;;;;5109110;28;20035;-77
2024/01/24 04:03:10;;;;;;;9.40;7.03;;;3.60;99.90;;;;;;5100737;28;20048;-76
2024/01/24 04:05:36;;;;;;;9.20;7.60;;;3.60;99.90;;;;;;5105855;28;20110;-77
2024/01/24 04:08:02;;;;;;;10.52;8.18;;;3.60;99.90;;;;;;5107892;28;20077;-77
2024/01/24 04:10:28;;;;;;;9.15;8.18;;;3.60;99.90;;;;;;5105009;28;20070;-76
2024/01/24 04:12:53;;;;;;;9.15;8.15;;;3.60;99.90;;;;;;5102317;28;20032;-77
2024/01/24 04:15:19;;;;;;;9.73;7.88;;;3.50;99.90;;;;;;5103005;28;20050;-77
2024/01/24 04:17:45;;;;;;;9.93;8.65;;;3.50;99.90;;;;;;5103213;28;20069;-76
2024/01/24 04:20:11;;;;;;;9.75;7.70;;;3.50;99.90;;;;;;5080042;28;20326;-76
2024/01/24 04:22:38;;;;;;;12.80;8.00;;;3.60;99.90;;;;;;5100990;28;20028;-76
2024/01/24 04:25:04;;;;;;;10.95;7.95;;;3.60;99.90;;;;;;5074574;28;20028;-76
2024/01/24 04:27:29;;;;;;;10.07;8.25;;;3.60;99.90;;;;;;5107409;28;20020;-76
2024/01/24 04:29:55;;;;;;;8.10;7.30;;;3.60;99.90;;;;;;5096830;28;20507;-77
2024/01/24 04:32:21;;;;;;;9.75;8.02;;;3.60;99.90;;;;;;5096444;28;20035;-76
2024/01/24 04:34:46;;;;;;;12.70;7.97;;;3.70;99.90;;;;;;5103949;28;20383;-76
2024/01/24 04:37:12;;;;;;;8.82;7.65;;;3.70;99.90;;;;;;5104576;28;20016;-76
2024/01/24 04:39:38;;;;;;;9.35;8.20;;;3.60;99.90;;;;;;5093489;28;20465;-76
2024/01/24 04:42:04;;;;;;;9.55;7.40;;;3.60;99.90;;;;;;5103122;28;20483;-76
2024/01/24 04:44:30;;;;;;;8.48;7.68;;;3.60;99.90;;;;;;5073593;28;20419;-76
2024/01/24 04:46:56;;;;;;;9.68;7.50;;;3.60;99.90;;;;;;5110281;28;20023;-76
2024/01/24 04:49:22;;;;;;;12.93;8.05;;;3.60;99.90;;;;;;5112493;28;20028;-76
2024/01/24 04:51:48;;;;;;;17.20;7.75;;;3.60;99.90;;;;;;5109934;28;20018;-76
2024/01/24 04:54:15;;;;;;;8.63;7.70;;;3.60;99.90;;;;;;5081219;28;20076;-76
2024/01/24 04:56:45;;;;;;;10.77;7.80;;;3.60;99.90;;;;;;5094292;28;20513;-77
2024/01/24 04:59:15;;;;;;;9.52;7.68;;;3.60;99.90;;;;;;5112444;28;20016;-76
2024/01/24 05:01:41;;;;;;;8.60;7.03;;;3.60;99.90;;;;;;5094863;28;20016;-76
2024/01/24 05:04:08;;;;;;;10.15;7.45;;;3.60;99.90;;;;;;5111819;27;20555;-76
2024/01/24 05:06:35;;;;;;;9.00;7.43;;;3.60;99.90;;;;;;5100136;28;20062;-76
2024/01/24 05:09:01;;;;;;;8.73;6.72;;;3.60;99.90;;;;;;5102523;28;20090;-76
2024/01/24 05:11:27;;;;;;;11.38;7.47;;;3.60;99.90;;;;;;5105161;28;20059;-76
2024/01/24 05:13:54;;;;;;;8.20;7.40;;;3.70;99.90;;;;;;5114378;28;20058;-76
2024/01/24 05:16:20;;;;;;;10.45;7.30;;;3.70;99.90;;;;;;5093761;28;20020;-76
2024/01/24 05:18:46;;;;;;;11.38;6.90;;;3.60;99.90;;;;;;5099932;28;20069;-77
2024/01/24 05:21:12;;;;;;;12.90;7.28;;;3.70;99.90;;;;;;5104132;28;20024;-76
2024/01/24 05:23:37;;;;;;;10.05;7.20;;;3.70;99.90;;;;;;5111753;28;20031;-76
2024/01/24 05:26:03;;;;;;;9.20;7.15;;;3.70;99.90;;;;;;5100886;28;20024;-76
2024/01/24 05:28:29;;;;;;;11.38;8.23;;;3.60;99.90;;;;;;5099991;28;20028;-77
2024/01/24 05:30:55;;;;;;;10.00;6.93;;;3.70;99.90;;;;;;5092251;28;20027;-76
2024/01/24 05:33:20;;;;;;;8.20;7.28;;;3.70;99.90;;;;;;5091831;28;20032;-77
2024/01/24 05:35:46;;;;;;;16.42;8.07;;;3.70;99.90;;;;;;5114049;28;20020;-76
2024/01/24 05:38:12;;;;;;;12.35;8.00;;;3.70;99.90;;;;;;5093844;28;20458;-76
2024/01/24 05:40:37;;;;;;;14.07;7.72;;;3.70;99.90;;;;;;5072519;28;20048;-76
2024/01/24 05:43:03;;;;;;;8.98;7.57;;;3.70;99.90;;;;;;5075271;28;20057;-76
2024/01/24 05:45:29;;;;;;;12.70;7.45;;;3.60;99.90;;;;;;5073257;28;20483;-76
2024/01/24 05:47:55;;;;;;;9.80;6.88;;;3.70;99.90;;;;;;5084167;28;20091;-76
2024/01/24 05:50:20;;;;;;;9.38;7.43;;;3.70;99.90;;;;;;5070206;28;20229;-76
2024/01/24 05:52:46;;;;;;;12.43;7.35;;;3.70;99.90;;;;;;5071276;28;20028;-76
2024/01/24 05:55:12;;;;;;;8.48;6.57;;;3.70;99.90;;;;;;5102867;28;20024;-76
2024/01/24 05:57:39;;;;;;;7.80;6.50;;;3.70;99.90;;;;;;5093424;28;20576;-76
2024/01/24 06:00:08;;;;;;;8.68;7.32;;;3.70;99.90;;;;;;5090439;28;20567;-76
2024/01/24 06:02:37;;;;;;;11.45;7.43;;;3.70;99.90;;;;;;5077267;28;20149;-76
2024/01/24 06:05:03;;;;;;;10.50;7.15;;;3.70;99.90;;;;;;5088777;28;20074;-76
2024/01/24 06:07:30;;;;;;;10.68;6.80;;;3.70;99.90;;;;;;5077280;28;20076;-76
2024/01/24 06:09:57;;;;;;;15.32;8.10;;;3.70;99.90;;;;;;5094952;28;20024;-76
2024/01/24 06:12:22;;;;;;;12.93;7.47;;;3.60;99.90;;;;;;5094564;28;20028;-76
2024/01/24 06:14:49;;;;;;;9.75;7.20;;;3.60;99.90;;;;;;5094732;28;20030;-77
2024/01/24 06:17:16;;;;;;;8.43;7.00;;;3.60;99.90;;;;;;5071028;28;20023;-76
2024/01/24 06:19:45;;;;;;;10.60;6.60;;;3.70;99.90;;;;;;5094721;28;20017;-76
2024/01/24 06:22:10;;;;;;;9.88;6.82;;;3.60;99.90;;;;;;5094674;28;20099;-76
2024/01/24 06:24:37;;;;;;;8.68;7.00;;;3.60;99.90;;;;;;5093674;28;20312;-76
2024/01/24 06:27:03;;;;;;;13.60;7.00;;;3.60;99.90;;;;;;5092500;28;20025;-76
2024/01/24 06:29:29;;;;;;;10.27;7.57;;;3.70;99.90;;;;;;5081311;28;20557;-76
2024/01/24 06:31:55;;;;;;;14.60;7.90;;;3.60;99.90;;;;;;5090731;28;20023;-76
2024/01/24 06:34:21;;;;;;;12.43;6.50;;;3.60;99.90;;;;;;5073067;28;20484;-76
2024/01/24 06:36:49;;;;;;;10.55;6.78;;;3.60;99.90;;;;;;5078631;28;20051;-76
2024/01/24 06:39:14;;;;;;;10.27;7.15;;;3.60;99.90;;;;;;5090984;28;20551;-76
2024/01/24 06:41:40;;;;;;;8.02;6.82;;;3.60;99.90;;;;;;5106395;28;20032;-76
2024/01/24 06:44:06;;;;;;;20.95;7.72;;;3.60;99.90;;;;;;5114971;27;20028;-76
2024/01/24 06:46:32;;;;;;;23.60;8.00;;;3.60;99.90;;;;;;5106938;28;20026;-76
2024/01/24 06:48:59;;;;;;;13.45;7.20;;;3.60;99.90;;;;;;5101651;28;20043;-76
2024/01/24 06:51:24;;;;;;;19.15;7.50;;;3.60;99.90;;;;;;5106013;28;20051;-76
2024/01/24 06:53:50;;;;;;;17.00;7.55;;;3.60;99.90;;;;;;5112161;28;20274;-76
2024/01/24 06:56:16;;;;;;;14.77;6.95;;;3.60;99.90;;;;;;5112581;28;20055;-77
2024/01/24 06:58:42;;;;;;;12.20;7.15;;;3.60;99.90;;;;;;5107694;28;20026;-76
2024/01/24 07:01:08;;;;;;;11.02;7.40;;;3.60;99.90;;;;;;5113321;28;20031;-76
2024/01/24 07:03:34;;;;;;;9.82;6.72;;;3.70;99.90;;;;;;5095405;28;20031;-76
2024/01/24 07:06:00;;;;;;;11.07;7.40;;;3.70;99.90;;;;;;5105141;28;20128;-76
2024/01/24 07:08:25;;;;;;;9.27;7.13;;;3.70;99.90;;;;;;5095224;28;20056;-76
2024/01/24 07:10:51;;;;;;;12.23;7.45;;;3.60;99.90;;;;;;5113614;28;20031;-76
2024/01/24 07:13:16;;;;;;;8.13;6.35;;;3.60;99.90;;;;;;5102256;28;20441;-76
2024/01/24 07:15:42;;;;;;;7.85;6.75;;;3.70;99.90;;;;;;5105445;28;20024;-76
2024/01/24 07:18:09;;;;;;;8.93;6.45;;;3.70;99.90;;;;;;5075922;28;20024;-76
2024/01/24 07:20:35;;;;;;;12.20;7.45;;;3.70;99.90;;;;;;5098271;28;20016;-76
2024/01/24 07:23:01;;;;;;;9.50;7.10;;;3.70;99.90;;;;;;5102054;28;20106;-77
2024/01/24 07:25:27;;;;;;;11.10;7.60;;;3.80;99.90;;;;;;5104312;28;20024;-76
2024/01/24 07:27:53;;;;;;;16.60;7.85;;;3.80;99.90;;;;;;5112255;28;20039;-76
2024/01/24 07:30:22;;;;;;;17.17;8.30;;;3.80;99.90;;;;;;5103250;28;20024;-76
2024/01/24 07:32:48;;;;;;;12.30;7.22;;;3.80;99.90;;;;;;5094037;28;20055;-76
2024/01/24 07:35:15;;;;;;;10.25;7.55;;;3.90;99.90;;;;;;5093620;28;20089;-76
2024/01/24 07:37:40;;;;;;;9.60;7.70;;;3.90;99.90;;;;;;5083570;28;20159;-76
2024/01/24 07:40:07;;;;;;;14.10;7.38;;;3.90;99.90;;;;;;5110355;28;20044;-76
2024/01/24 07:42:33;;;;;;;10.77;7.13;;;3.90;99.90;;;;;;5090618;28;20479;-76
2024/01/24 07:44:59;;;;;;;15.95;7.63;;;4.00;99.90;;;;;;5098958;28;20027;-76
2024/01/24 07:47:25;;;;;;;15.60;7.05;;;4.00;99.90;;;;;;5109834;28;20077;-76
2024/01/24 07:49:51;;;;;;;10.27;8.13;;;4.00;99.90;;;;;;5107717;28;20024;-76
2024/01/24 07:52:16;;;;;;;12.32;7.90;;;4.00;99.90;;;;;;5104585;28;20073;-76
2024/01/24 07:54:43;;;;;;;11.75;8.10;;;4.00;99.90;;;;;;5101237;28;20136;-76
2024/01/24 07:57:09;;;;;;;14.45;8.35;;;4.00;99.90;;;;;;5087736;28;20047;-76
2024/01/24 07:59:36;;;;;;;18.58;8.00;;;4.00;99.90;;;;;;5100532;28;20474;-77
2024/01/24 08:02:03;;;;;;;12.57;8.90;;;4.00;99.90;;;;;;5095042;28;20032;-76
2024/01/24 08:04:30;;;;;;;15.30;8.63;;;4.00;99.90;;;;;;5082675;28;20042;-76
2024/01/24 08:06:56;;;;;;;14.77;7.93;;;4.10;99.90;;;;;;5116657;27;20035;-76
2024/01/24 08:09:22;;;;;;;13.23;8.02;;;4.10;99.90;;;;;;5100562;28;20019;-76
2024/01/24 08:11:47;;;;;;;10.35;7.57;;;4.20;99.90;;;;;;5099920;28;20024;-76
2024/01/24 08:14:13;;;;;;;13.25;8.43;;;4.20;99.90;;;;;;5100803;28;20069;-76
2024/01/24 08:16:39;;;;;;;21.60;10.70;;;4.20;99.90;;;;;;5096747;28;20042;-77
2024/01/24 08:19:05;;;;;;;20.27;11.82;;;4.30;99.90;;;;;;5081759;28;20024;-76
2024/01/24 08:21:30;;;;;;;34.05;15.68;;;4.30;99.90;;;;;;5100147;28;20411;-76
2024/01/24 08:23:56;;;;;;;18.13;11.55;;;4.40;99.90;;;;;;5104608;28;20165;-77
2024/01/24 08:26:24;;;;;;;20.52;11.55;;;4.40;99.90;;;;;;5103525;28;20430;-76
2024/01/24 08:28:49;;;;;;;20.73;11.50;;;4.50;99.90;;;;;;5105102;28;20032;-77
2024/01/24 08:31:15;;;;;;;18.67;11.32;;;4.50;99.90;;;;;;5100240;28;20093;-76
2024/01/24 08:33:41;;;;;;;19.17;11.45;;;4.60;99.90;;;;;;5100260;28;20371;-76
2024/01/24 08:36:07;;;;;;;19.20;10.43;;;4.60;99.90;;;;;;5100473;28;20037;-77
2024/01/24 08:38:35;;;;;;;21.13;10.70;;;4.60;99.90;;;;;;5104217;28;20016;-76
2024/01/24 08:41:00;;;;;;;31.50;11.45;;;4.60;99.90;;;;;;5104427;28;20483;-76
2024/01/24 08:43:26;;;;;;;17.42;11.27;;;4.70;99.90;;;;;;5100437;28;20028;-77
2024/01/24 08:45:52;;;;;;;17.23;10.60;;;4.60;99.90;;;;;;5102363;28;20482;-76
2024/01/24 08:48:18;;;;;;;13.35;10.18;;;4.70;99.90;;;;;;5084037;28;20507;-76
2024/01/24 08:50:44;;;;;;;20.58;10.30;;;4.70;99.90;;;;;;5098222;28;20028;-77
2024/01/24 08:53:09;;;;;;;23.45;11.82;;;4.80;99.90;;;;;;5106915;28;20031;-76
2024/01/24 08:55:35;;;;;;;22.65;11.20;;;4.90;99.90;;;;;;5103988;28;20031;-77
2024/01/24 08:58:01;;;;;;;18.83;11.25;;;4.90;99.90;;;;;;5100684;28;20020;-76
2024/01/24 09:00:27;;;;;;;22.63;11.45;;;5.00;99.90;;;;;;5103412;28;20506;-76
2024/01/24 09:02:53;;;;;;;23.75;11.57;;;5.00;99.90;;;;;;5099973;28;20019;-77
2024/01/24 09:05:20;;;;;;;18.85;12.27;;;5.10;99.90;;;;;;5116199;28;20023;-76
2024/01/24 09:07:46;;;;;;;20.92;12.50;;;5.10;99.90;;;;;;5103424;28;20539;-77
2024/01/24 09:10:12;;;;;;;26.70;12.02;;;5.10;99.90;;;;;;5119379;28;20151;-76
2024/01/24 09:12:38;;;;;;;18.73;12.27;;;5.20;99.90;;;;;;5082957;28;20450;-77
2024/01/24 09:15:04;;;;;;;20.13;12.50;;;5.30;99.90;;;;;;5102201;28;20111;-76
2024/01/24 09:17:32;;;;;;;16.40;11.93;;;5.30;99.90;;;;;;5092417;28;20028;-77
2024/01/24 09:19:57;;;;;;;23.42;13.38;;;5.40;99.90;;;;;;5103922;28;20032;-76
2024/01/24 09:22:23;;;;;;;31.88;17.02;;;5.50;63.50;;;;;;5099856;28;20027;-76
2024/01/24 09:24:49;;;;;;;26.75;16.27;;;5.60;99.90;;;;;;5103824;28;20031;-77
2024/01/24 09:27:15;;;;;;;28.42;17.20;;;5.60;1.00;;;;;;5117119;28;20020;-76
2024/01/24 09:29:41;;;;;;;29.95;18.08;;;5.60;1.00;;;;;;5103521;28;20034;-76
2024/01/24 09:32:07;;;;;;;29.92;18.00;;;5.70;1.60;;;;;;5118602;27;20020;-77
2024/01/24 09:34:32;;;;;;;32.63;17.40;;;5.70;28.50;;;;;;5106694;28;20031;-76
2024/01/24 09:36:58;;;;;;;28.35;17.55;;;5.80;99.90;;;;;;5112194;28;20414;-76
2024/01/24 09:39:27;;;;;;;30.48;18.73;;;5.80;90.10;;;;;;5115044;28;20078;-77
2024/01/24 09:41:53;;;;;;;39.30;19.00;;;5.90;99.90;;;;;;5120016;27;20027;-77
2024/01/24 09:44:19;;;;;;;28.45;18.55;;;6.00;99.90;;;;;;5122366;27;20023;-76
2024/01/24 09:46:49;;;;;;;33.90;20.08;;;6.10;99.90;;;;;;5102778;28;20117;-76
2024/01/24 09:49:17;;;;;;;30.13;19.35;;;6.20;99.90;;;;;;5105309;28;20030;-76
2024/01/24 09:51:44;;;;;;;40.17;19.98;;;6.30;99.90;;;;;;5100673;28;20454;-77
2024/01/24 09:54:10;;;;;;;37.60;22.13;;;6.50;99.90;;;;;;5100871;28;20544;-77
2024/01/24 09:56:37;;;;;;;40.45;23.83;;;6.60;71.50;;;;;;5109059;28;20058;-77
2024/01/24 09:59:04;;;;;;;36.78;22.65;;;6.70;1.00;;;;;;5108054;28;20378;-76
2024/01/24 10:01:33;;;;;;;39.28;22.05;;;6.60;4.90;;;;;;5111589;28;20017;-76
2024/01/24 10:04:00;;;;;;;40.83;22.00;;;6.60;89.80;;;;;;5102118;28;20055;-77
2024/01/24 10:06:27;;;;;;;37.15;21.45;;;6.60;1.00;;;;;;5103992;28;20055;-76
2024/01/24 10:08:54;;;;;;;40.15;22.02;;;6.60;1.00;;;;;;5103178;28;20020;-76
2024/01/24 10:11:20;;;;;;;38.05;21.50;;;6.70;1.00;;;;;;5112097;28;20030;-77
2024/01/24 10:13:45;;;;;;;37.95;19.77;;;6.70;1.00;;;;;;5085181;28;20387;-77
2024/01/24 10:16:12;;;;;;;37.75;19.73;;;6.60;1.00;;;;;;5107681;28;20421;-77
2024/01/24 10:18:38;;;;;;;35.80;18.23;;;6.60;1.00;;;;;;5115146;27;20122;-76
2024/01/24 10:21:05;;;;;;;37.08;19.95;;;6.70;99.90;;;;;;5104477;28;20022;-77
2024/01/24 10:23:31;;;;;;;37.83;18.23;;;6.70;99.90;;;;;;5102665;28;20098;-77
2024/01/24 10:26:00;;;;;;;37.53;21.27;;;6.70;1.00;;;;;;5111655;28;20020;-76
2024/01/24 10:28:26;;;;;;;30.52;19.27;;;6.80;99.90;;;;;;5103246;28;20051;-76
2024/01/24 10:30:52;;;;;;;33.20;20.30;;;6.80;99.90;;;;;;5095381;28;20028;-76
2024/01/24 10:33:17;;;;;;;30.30;19.40;;;6.80;1.00;;;;;;5089007;28;20016;-76
2024/01/24 10:35:44;;;;;;;49.03;20.85;;;6.80;99.90;;;;;;5110955;28;20570;-77
2024/01/24 10:38:13;;;;;;;31.65;18.83;;;6.90;99.90;;;;;;5093127;28;20073;-77
2024/01/24 10:40:40;;;;;;;39.40;20.48;;;7.00;99.90;;;;;;5098519;28;20051;-77
2024/01/24 10:43:11;;;;;;;37.10;19.17;;;7.00;99.90;;;;;;5083650;28;20081;-76
2024/01/24 10:45:40;;;;;;;35.35;18.23;;;7.00;99.90;;;;;;5106785;28;20111;-76
2024/01/24 10:48:08;;;;;;;29.30;17.63;;;7.10;99.90;;;;;;5102955;28;20024;-76
2024/01/24 10:50:36;;;;;;;29.48;17.67;;;7.20;46.70;;;;;;5108903;28;20047;-77
2024/01/24 10:53:02;;;;;;;26.67;18.10;;;7.20;99.90;;;;;;5122734;27;20487;-76
2024/01/24 10:55:31;;;;;;;26.05;17.58;;;7.20;99.90;;;;;;5104399;28;20025;-76
2024/01/24 10:57:57;;;;;;;25.17;16.70;;;7.30;99.90;;;;;;5111346;28;20031;-77
2024/01/24 11:00:24;;;;;;;26.30;16.95;;;7.40;99.30;;;;;;5111189;28;20015;-76
2024/01/24 11:02:52;;;;;;;29.05;16.20;;;7.50;34.10;;;;;;5105059;28;20031;-77
2024/01/24 11:05:32;;;;;;;32.15;16.35;;;7.50;96.00;;;;;;5106957;28;20031;-76
2024/01/24 11:08:14;;;;;;;24.83;16.02;;;7.60;90.60;;;;;;5111508;28;20160;-77
2024/01/24 11:10:42;;;;;;;23.27;15.65;;;7.60;69.90;;;;;;5130740;27;20031;-76
2024/01/24 11:13:10;;;;;;;19.98;14.30;;;7.60;93.90;;;;;;5094608;28;20039;-77
2024/01/24 11:15:36;;;;;;;21.75;13.73;;;7.70;99.90;;;;;;5102540;28;20028;-76
2024/01/24 11:18:21;;;;;;;22.58;12.88;;;7.80;5.70;;;;;;5110323;28;20157;-77
2024/01/24 11:20:53;;;;;;;18.83;12.55;;;7.90;48.60;;;;;;5093166;28;20032;-76
2024/01/24 11:23:45;;;;;;;23.88;13.65;;;7.90;99.30;;;;;;5094372;28;20310;-77
2024/01/24 11:26:11;;;;;;;21.60;13.05;;;8.00;1.00;;;;;;5105032;28;20028;-77
2024/01/24 11:28:38;;;;;;;21.05;12.63;;;7.90;4.50;;;;;;5109258;28;20054;-77
2024/01/24 11:31:06;;;;;;;22.63;12.35;;;8.00;1.00;;;;;;5106061;28;20031;-77
2024/01/24 11:33:32;;;;;;;21.85;12.60;;;8.10;1.00;;;;;;5093026;28;20510;-77
2024/01/24 11:35:59;;;;;;;20.70;12.73;;;8.20;1.00;;;;;;5095153;28;20029;-77
2024/01/24 11:38:31;;;;;;;20.15;12.00;;;8.30;1.00;;;;;;5096483;28;20387;-77
2024/01/24 11:41:00;;;;;;;17.08;11.32;;;8.30;1.00;;;;;;5094434;28;20043;-77
2024/01/24 11:43:31;;;;;;;22.05;12.65;;;8.30;1.00;;;;;;5093452;28;20032;-76
2024/01/24 11:46:01;;;;;;;18.38;12.27;;;8.30;1.00;;;;;;5083003;28;20024;-76
2024/01/24 11:48:27;;;;;;;20.73;12.30;;;8.40;1.00;;;;;;5087370;28;20043;-76
2024/01/24 11:51:05;;;;;;;23.48;14.20;;;8.30;1.00;;;;;;5092228;28;20474;-76
2024/01/24 11:53:31;;;;;;;20.65;13.73;;;8.30;1.00;;;;;;5071417;28;20071;-76
2024/01/24 11:56:02;;;;;;;19.85;13.35;;;8.40;1.00;;;;;;5093149;28;20481;-76
2024/01/24 11:58:28;;;;;;;19.25;12.80;;;8.40;1.00;;;;;;5091543;28;20467;-76
2024/01/24 12:01:10;;;;;;;21.80;14.52;;;8.40;1.00;;;;;;5097909;28;20024;-77
2024/01/24 12:03:37;;;;;;;18.40;14.05;;;8.50;1.00;;;;;;5092231;28;20031;-76
2024/01/24 12:06:04;;;;;;;22.73;15.50;;;8.60;1.00;;;;;;5091186;28;20026;-76
2024/01/24 12:08:30;;;;;;;26.05;14.93;;;8.60;1.00;;;;;;5091883;28;20112;-76
2024/01/24 12:10:56;;;;;;;24.10;15.30;;;8.70;1.00;;;;;;5074767;28;20024;-76
2024/01/24 12:13:23;;;;;;;28.60;16.02;;;8.80;4.00;;;;;;5080477;28;20028;-77
2024/01/24 12:15:51;;;;;;;24.55;16.05;;;8.80;1.00;;;;;;5053169;28;20488;-77
2024/01/24 12:18:17;;;;;;;23.85;15.63;;;8.80;1.00;;;;;;5083623;28;20017;-77
2024/01/24 12:20:49;;;;;;;31.40;15.75;;;8.80;1.00;;;;;;5092369;28;20032;-76
2024/01/24 12:23:15;;;;;;;;;;;8.90;1.00;;;;;;5092004;28;20012;-76
2024/01/24 12:25:42;;;;;;;25.15;16.23;;;8.90;1.00;;;;;;5092336;28;19911;-76
2024/01/24 12:28:09;;;;;;;25.98;16.95;;;8.90;29.30;;;;;;5102095;28;20328;-77
2024/01/24 12:30:35;;;;;;;26.30;16.83;;;9.00;82.50;;;;;;5074688;28;20012;-77
2024/01/24 12:33:03;;;;;;;28.63;16.30;;;9.00;1.00;;;;;;5081783;28;20623;-76
2024/01/24 12:35:29;;;;;;;29.85;17.35;;;9.00;24.70;;;;;;5081078;28;20020;-76
2024/01/24 12:37:59;;;;;;;29.38;17.90;;;9.00;31.80;;;;;;5076824;28;20369;-77
2024/01/24 12:40:27;;;;;;;27.77;17.08;;;9.00;23.40;;;;;;5105184;28;20048;-77
2024/01/24 12:42:53;;;;;;;26.48;16.83;;;9.00;14.40;;;;;;5101727;28;20059;-76